sensor_id;sensor_type;location;lat;lon;timestamp;temperature;humidity
45843;DHT22;31563;51.744;8.252;2023-04-03T00:01:12;16.90;40.60
45843;DHT22;31563;51.744;8.252;2023-04-03T00:03:40;16.90;40.70
45843;DHT22;31563;51.744;8.252;2023-04-03T00:06:11;16.90;40.50
45843;DHT22;31563;51.744;8.252;2023-04-03T00:08:40;16.80;40.50
45843;DHT22;31563;51.744;8.252;2023-04-03T00:11:08;16.90;40.70
45843;DHT22;31563;51.744;8.252;2023-04-03T00:13:37;16.90;40.60
45843;DHT22;31563;51.744;8.252;2023-04-03T00:16:07;16.90;41.00
45843;DHT22;31563;51.744;8.252;2023-04-03T00:18:36;16.90;40.80
45843;DHT22;31563;51.744;8.252;2023-04-03T00:21:05;16.90;40.90
45843;DHT22;31563;51.744;8.252;2023-04-03T00:23:34;16.90;41.00
45843;DHT22;31563;51.744;8.252;2023-04-03T00:26:03;16.90;41.10
45843;DHT22;31563;51.744;8.252;2023-04-03T00:28:31;16.90;41.00
45843;DHT22;31563;51.744;8.252;2023-04-03T00:30:59;16.90;41.00
45843;DHT22;31563;51.744;8.252;2023-04-03T00:33:27;16.90;41.20
45843;DHT22;31563;51.744;8.252;2023-04-03T00:35:56;16.90;41.20
45843;DHT22;31563;51.744;8.252;2023-04-03T00:38:24;16.90;41.10
45843;DHT22;31563;51.744;8.252;2023-04-03T00:40:53;16.90;41.10
45843;DHT22;31563;51.744;8.252;2023-04-03T00:43:23;16.90;41.10
45843;DHT22;31563;51.744;8.252;2023-04-03T00:45:54;16.80;41.10
45843;DHT22;31563;51.744;8.252;2023-04-03T00:48:26;16.80;41.10
45843;DHT22;31563;51.744;8.252;2023-04-03T00:50:56;16.80;41.10
45843;DHT22;31563;51.744;8.252;2023-04-03T00:53:27;16.80;41.10
45843;DHT22;31563;51.744;8.252;2023-04-03T00:56:00;16.80;41.20
45843;DHT22;31563;51.744;8.252;2023-04-03T00:58:34;16.80;41.20
45843;DHT22;31563;51.744;8.252;2023-04-03T01:01:07;16.90;41.30
45843;DHT22;31563;51.744;8.252;2023-04-03T01:03:36;16.90;41.20
45843;DHT22;31563;51.744;8.252;2023-04-03T01:06:05;16.90;41.10
45843;DHT22;31563;51.744;8.252;2023-04-03T01:08:33;16.90;41.20
45843;DHT22;31563;51.744;8.252;2023-04-03T01:11:03;16.90;41.10
45843;DHT22;31563;51.744;8.252;2023-04-03T01:13:33;16.90;41.10
45843;DHT22;31563;51.744;8.252;2023-04-03T01:16:02;16.80;41.10
45843;DHT22;31563;51.744;8.252;2023-04-03T01:18:31;16.90;41.20
45843;DHT22;31563;51.744;8.252;2023-04-03T01:24:21;16.90;41.10
45843;DHT22;31563;51.744;8.252;2023-04-03T01:26:51;16.90;41.10
45843;DHT22;31563;51.744;8.252;2023-04-03T01:29:19;16.90;41.10
45843;DHT22;31563;51.744;8.252;2023-04-03T01:31:53;16.80;41.00
45843;DHT22;31563;51.744;8.252;2023-04-03T01:34:22;16.80;41.10
45843;DHT22;31563;51.744;8.252;2023-04-03T01:36:51;16.80;41.10
45843;DHT22;31563;51.744;8.252;2023-04-03T01:39:20;16.80;41.10
45843;DHT22;31563;51.744;8.252;2023-04-03T01:41:49;16.80;41.00
45843;DHT22;31563;51.744;8.252;2023-04-03T01:44:17;16.80;41.10
45843;DHT22;31563;51.744;8.252;2023-04-03T01:46:45;16.70;41.10
45843;DHT22;31563;51.744;8.252;2023-04-03T01:49:15;16.70;41.10
45843;DHT22;31563;51.744;8.252;2023-04-03T01:51:43;16.70;41.20
45843;DHT22;31563;51.744;8.252;2023-04-03T01:54:11;16.70;41.20
45843;DHT22;31563;51.744;8.252;2023-04-03T01:56:40;16.70;41.20
45843;DHT22;31563;51.744;8.252;2023-04-03T01:59:08;16.70;41.10
45843;DHT22;31563;51.744;8.252;2023-04-03T02:01:36;16.70;41.20
45843;DHT22;31563;51.744;8.252;2023-04-03T02:04:04;16.70;41.10
45843;DHT22;31563;51.744;8.252;2023-04-03T02:06:34;16.70;41.10
45843;DHT22;31563;51.744;8.252;2023-04-03T02:09:03;16.70;41.10
45843;DHT22;31563;51.744;8.252;2023-04-03T02:11:31;16.70;41.10
45843;DHT22;31563;51.744;8.252;2023-04-03T02:14:00;16.70;41.10
45843;DHT22;31563;51.744;8.252;2023-04-03T02:16:28;16.70;41.10
45843;DHT22;31563;51.744;8.252;2023-04-03T02:18:57;16.70;41.10
45843;DHT22;31563;51.744;8.252;2023-04-03T02:21:25;16.70;41.70
45843;DHT22;31563;51.744;8.252;2023-04-03T02:23:55;16.70;41.00
45843;DHT22;31563;51.744;8.252;2023-04-03T02:26:24;16.80;41.10
45843;DHT22;31563;51.744;8.252;2023-04-03T02:28:53;16.70;41.10
45843;DHT22;31563;51.744;8.252;2023-04-03T02:31:21;16.70;41.10
45843;DHT22;31563;51.744;8.252;2023-04-03T02:33:50;16.70;41.10
45843;DHT22;31563;51.744;8.252;2023-04-03T02:36:19;16.70;41.10
45843;DHT22;31563;51.744;8.252;2023-04-03T02:38:47;16.70;41.10
45843;DHT22;31563;51.744;8.252;2023-04-03T02:41:17;16.70;41.00
45843;DHT22;31563;51.744;8.252;2023-04-03T02:43:45;16.70;41.10
45843;DHT22;31563;51.744;8.252;2023-04-03T02:46:13;16.60;40.90
45843;DHT22;31563;51.744;8.252;2023-04-03T02:48:42;16.50;44.00
45843;DHT22;31563;51.744;8.252;2023-04-03T02:51:10;16.50;40.40
45843;DHT22;31563;51.744;8.252;2023-04-03T02:53:38;16.50;41.10
45843;DHT22;31563;51.744;8.252;2023-04-03T02:56:07;16.60;41.10
45843;DHT22;31563;51.744;8.252;2023-04-03T02:58:36;16.50;41.00
45843;DHT22;31563;51.744;8.252;2023-04-03T03:01:04;16.50;41.10
45843;DHT22;31563;51.744;8.252;2023-04-03T03:03:33;16.50;41.00
45843;DHT22;31563;51.744;8.252;2023-04-03T03:06:02;16.50;41.00
45843;DHT22;31563;51.744;8.252;2023-04-03T03:08:30;16.50;41.00
45843;DHT22;31563;51.744;8.252;2023-04-03T03:10:58;16.50;41.00
45843;DHT22;31563;51.744;8.252;2023-04-03T03:13:27;16.50;41.10
45843;DHT22;31563;51.744;8.252;2023-04-03T03:15:56;16.50;41.00
45843;DHT22;31563;51.744;8.252;2023-04-03T03:18:25;16.50;41.00
45843;DHT22;31563;51.744;8.252;2023-04-03T03:20:54;16.50;41.00
45843;DHT22;31563;51.744;8.252;2023-04-03T03:23:23;16.50;41.00
45843;DHT22;31563;51.744;8.252;2023-04-03T03:25:55;16.40;40.90
45843;DHT22;31563;51.744;8.252;2023-04-03T03:28:23;16.50;41.00
45843;DHT22;31563;51.744;8.252;2023-04-03T03:30:51;16.40;41.00
45843;DHT22;31563;51.744;8.252;2023-04-03T03:33:21;16.50;41.00
45843;DHT22;31563;51.744;8.252;2023-04-03T03:35:49;16.40;40.90
45843;DHT22;31563;51.744;8.252;2023-04-03T03:38:17;16.40;41.00
45843;DHT22;31563;51.744;8.252;2023-04-03T03:40:46;16.40;40.90
45843;DHT22;31563;51.744;8.252;2023-04-03T03:43:15;16.40;41.00
45843;DHT22;31563;51.744;8.252;2023-04-03T03:45:43;16.40;41.00
45843;DHT22;31563;51.744;8.252;2023-04-03T03:48:12;16.40;41.10
45843;DHT22;31563;51.744;8.252;2023-04-03T03:50:41;16.40;41.10
45843;DHT22;31563;51.744;8.252;2023-04-03T03:53:09;16.50;41.10
45843;DHT22;31563;51.744;8.252;2023-04-03T03:55:38;16.50;41.00
45843;DHT22;31563;51.744;8.252;2023-04-03T03:58:06;16.60;41.10
45843;DHT22;31563;51.744;8.252;2023-04-03T04:00:34;16.70;41.00
45843;DHT22;31563;51.744;8.252;2023-04-03T04:03:02;16.70;40.90
45843;DHT22;31563;51.744;8.252;2023-04-03T04:05:31;16.70;40.90
45843;DHT22;31563;51.744;8.252;2023-04-03T04:08:01;16.80;40.90
45843;DHT22;31563;51.744;8.252;2023-04-03T04:10:29;16.80;40.90
45843;DHT22;31563;51.744;8.252;2023-04-03T04:12:57;16.90;40.90
45843;DHT22;31563;51.744;8.252;2023-04-03T04:15:25;16.90;40.70
45843;DHT22;31563;51.744;8.252;2023-04-03T04:17:53;16.90;40.70
45843;DHT22;31563;51.744;8.252;2023-04-03T04:20:22;17.00;40.80
45843;DHT22;31563;51.744;8.252;2023-04-03T04:22:50;17.00;40.70
45843;DHT22;31563;51.744;8.252;2023-04-03T04:25:19;17.00;40.50
45843;DHT22;31563;51.744;8.252;2023-04-03T04:27:48;17.00;40.50
45843;DHT22;31563;51.744;8.252;2023-04-03T04:30:16;17.00;40.40
45843;DHT22;31563;51.744;8.252;2023-04-03T04:32:44;17.10;40.50
45843;DHT22;31563;51.744;8.252;2023-04-03T04:35:12;17.10;40.50
45843;DHT22;31563;51.744;8.252;2023-04-03T04:37:42;17.10;40.40
45843;DHT22;31563;51.744;8.252;2023-04-03T04:40:11;17.10;40.30
45843;DHT22;31563;51.744;8.252;2023-04-03T04:42:41;17.10;40.30
45843;DHT22;31563;51.744;8.252;2023-04-03T04:45:09;17.10;40.20
45843;DHT22;31563;51.744;8.252;2023-04-03T04:47:38;17.20;40.30
45843;DHT22;31563;51.744;8.252;2023-04-03T04:50:07;17.20;40.20
45843;DHT22;31563;51.744;8.252;2023-04-03T04:52:35;17.20;40.20
45843;DHT22;31563;51.744;8.252;2023-04-03T04:55:04;17.20;40.20
45843;DHT22;31563;51.744;8.252;2023-04-03T04:57:32;17.20;40.20
45843;DHT22;31563;51.744;8.252;2023-04-03T05:00:04;17.20;40.20
45843;DHT22;31563;51.744;8.252;2023-04-03T05:02:32;17.20;40.10
45843;DHT22;31563;51.744;8.252;2023-04-03T05:05:00;17.30;40.10
45843;DHT22;31563;51.744;8.252;2023-04-03T05:07:31;17.20;40.00
45843;DHT22;31563;51.744;8.252;2023-04-03T05:09:59;17.30;40.10
45843;DHT22;31563;51.744;8.252;2023-04-03T05:12:27;17.30;40.00
45843;DHT22;31563;51.744;8.252;2023-04-03T05:14:55;17.30;40.00
45843;DHT22;31563;51.744;8.252;2023-04-03T05:17:25;17.30;40.00
45843;DHT22;31563;51.744;8.252;2023-04-03T05:19:53;17.30;40.00
45843;DHT22;31563;51.744;8.252;2023-04-03T05:22:21;17.30;39.90
45843;DHT22;31563;51.744;8.252;2023-04-03T05:24:49;17.30;39.90
45843;DHT22;31563;51.744;8.252;2023-04-03T05:27:17;17.30;39.90
45843;DHT22;31563;51.744;8.252;2023-04-03T05:29:45;17.40;40.00
45843;DHT22;31563;51.744;8.252;2023-04-03T05:32:13;17.40;39.90
45843;DHT22;31563;51.744;8.252;2023-04-03T05:34:43;17.40;39.70
45843;DHT22;31563;51.744;8.252;2023-04-03T05:37:11;17.40;39.80
45843;DHT22;31563;51.744;8.252;2023-04-03T05:39:40;17.40;39.70
45843;DHT22;31563;51.744;8.252;2023-04-03T05:42:08;17.50;39.70
45843;DHT22;31563;51.744;8.252;2023-04-03T05:44:38;17.50;39.70
45843;DHT22;31563;51.744;8.252;2023-04-03T05:47:07;17.50;39.70
45843;DHT22;31563;51.744;8.252;2023-04-03T05:49:35;17.50;39.40
45843;DHT22;31563;51.744;8.252;2023-04-03T05:52:16;17.50;39.90
45843;DHT22;31563;51.744;8.252;2023-04-03T05:54:45;17.50;38.80
45843;DHT22;31563;51.744;8.252;2023-04-03T05:57:15;17.50;39.20
45843;DHT22;31563;51.744;8.252;2023-04-03T05:59:44;17.50;38.40
45843;DHT22;31563;51.744;8.252;2023-04-03T06:02:15;17.40;37.80
45843;DHT22;31563;51.744;8.252;2023-04-03T06:04:44;17.30;36.80
45843;DHT22;31563;51.744;8.252;2023-04-03T06:07:16;17.20;36.50
45843;DHT22;31563;51.744;8.252;2023-04-03T06:09:45;17.10;37.10
45843;DHT22;31563;51.744;8.252;2023-04-03T06:12:13;17.10;37.70
45843;DHT22;31563;51.744;8.252;2023-04-03T06:14:41;17.20;38.00
45843;DHT22;31563;51.744;8.252;2023-04-03T06:17:09;17.40;38.20
45843;DHT22;31563;51.744;8.252;2023-04-03T06:19:39;17.50;37.80
45843;DHT22;31563;51.744;8.252;2023-04-03T06:22:08;17.60;37.90
45843;DHT22;31563;51.744;8.252;2023-04-03T06:24:37;17.70;37.60
45843;DHT22;31563;51.744;8.252;2023-04-03T06:27:06;17.80;37.50
45843;DHT22;31563;51.744;8.252;2023-04-03T06:29:34;17.80;38.20
45843;DHT22;31563;51.744;8.252;2023-04-03T06:32:02;17.90;37.40
45843;DHT22;31563;51.744;8.252;2023-04-03T06:34:30;17.80;34.90
45843;DHT22;31563;51.744;8.252;2023-04-03T06:36:58;17.70;35.90
45843;DHT22;31563;51.744;8.252;2023-04-03T06:39:27;17.70;36.20
45843;DHT22;31563;51.744;8.252;2023-04-03T06:41:57;17.90;36.70
45843;DHT22;31563;51.744;8.252;2023-04-03T06:44:25;18.10;36.30
45843;DHT22;31563;51.744;8.252;2023-04-03T06:46:53;18.20;36.60
45843;DHT22;31563;51.744;8.252;2023-04-03T06:49:22;18.30;36.30
45843;DHT22;31563;51.744;8.252;2023-04-03T06:51:50;18.50;36.30
45843;DHT22;31563;51.744;8.252;2023-04-03T06:54:18;18.60;36.30
45843;DHT22;31563;51.744;8.252;2023-04-03T06:56:46;18.70;36.00
45843;DHT22;31563;51.744;8.252;2023-04-03T06:59:16;18.90;36.10
45843;DHT22;31563;51.744;8.252;2023-04-03T07:01:44;19.00;36.50
45843;DHT22;31563;51.744;8.252;2023-04-03T07:04:13;19.20;36.00
45843;DHT22;31563;51.744;8.252;2023-04-03T07:06:41;19.30;35.90
45843;DHT22;31563;51.744;8.252;2023-04-03T07:09:10;19.40;35.60
45843;DHT22;31563;51.744;8.252;2023-04-03T07:11:39;19.60;35.70
45843;DHT22;31563;51.744;8.252;2023-04-03T07:14:07;19.70;35.70
45843;DHT22;31563;51.744;8.252;2023-04-03T07:16:37;19.90;35.80
45843;DHT22;31563;51.744;8.252;2023-04-03T07:19:08;20.10;35.40
45843;DHT22;31563;51.744;8.252;2023-04-03T07:21:36;20.20;35.50
45843;DHT22;31563;51.744;8.252;2023-04-03T07:24:05;20.30;35.40
45843;DHT22;31563;51.744;8.252;2023-04-03T07:26:37;20.50;35.50
45843;DHT22;31563;51.744;8.252;2023-04-03T07:29:05;20.60;35.20
45843;DHT22;31563;51.744;8.252;2023-04-03T07:31:33;20.80;35.00
45843;DHT22;31563;51.744;8.252;2023-04-03T07:34:03;21.00;34.70
45843;DHT22;31563;51.744;8.252;2023-04-03T07:36:31;21.20;35.50
45843;DHT22;31563;51.744;8.252;2023-04-03T07:39:00;21.40;35.50
45843;DHT22;31563;51.744;8.252;2023-04-03T07:41:28;21.50;35.50
45843;DHT22;31563;51.744;8.252;2023-04-03T07:43:57;21.60;35.10
45843;DHT22;31563;51.744;8.252;2023-04-03T07:46:25;21.80;35.40
45843;DHT22;31563;51.744;8.252;2023-04-03T07:48:53;22.00;35.60
45843;DHT22;31563;51.744;8.252;2023-04-03T07:51:25;22.20;35.40
45843;DHT22;31563;51.744;8.252;2023-04-03T07:53:54;22.30;35.30
45843;DHT22;31563;51.744;8.252;2023-04-03T07:56:23;22.40;35.20
45843;DHT22;31563;51.744;8.252;2023-04-03T07:58:51;22.60;35.30
45843;DHT22;31563;51.744;8.252;2023-04-03T08:01:20;22.80;35.70
45843;DHT22;31563;51.744;8.252;2023-04-03T08:03:48;23.00;35.20
45843;DHT22;31563;51.744;8.252;2023-04-03T08:06:18;23.20;35.00
45843;DHT22;31563;51.744;8.252;2023-04-03T08:09:00;23.40;34.80
45843;DHT22;31563;51.744;8.252;2023-04-03T08:11:28;23.50;34.70
45843;DHT22;31563;51.744;8.252;2023-04-03T08:13:57;23.80;34.50
45843;DHT22;31563;51.744;8.252;2023-04-03T08:16:26;24.00;34.40
45843;DHT22;31563;51.744;8.252;2023-04-03T08:18:54;24.20;34.40
45843;DHT22;31563;51.744;8.252;2023-04-03T08:21:23;24.40;34.30
45843;DHT22;31563;51.744;8.252;2023-04-03T08:23:51;24.60;34.70
45843;DHT22;31563;51.744;8.252;2023-04-03T08:26:21;24.80;34.00
45843;DHT22;31563;51.744;8.252;2023-04-03T08:28:49;25.10;33.80
45843;DHT22;31563;51.744;8.252;2023-04-03T08:31:19;25.30;33.50
45843;DHT22;31563;51.744;8.252;2023-04-03T08:33:47;25.50;33.40
45843;DHT22;31563;51.744;8.252;2023-04-03T08:36:18;25.80;33.60
45843;DHT22;31563;51.744;8.252;2023-04-03T08:38:47;26.00;33.70
45843;DHT22;31563;51.744;8.252;2023-04-03T08:41:25;26.20;33.20
45843;DHT22;31563;51.744;8.252;2023-04-03T08:44:03;26.50;33.30
45843;DHT22;31563;51.744;8.252;2023-04-03T08:46:46;26.70;33.00
45843;DHT22;31563;51.744;8.252;2023-04-03T08:49:21;27.00;33.20
45843;DHT22;31563;51.744;8.252;2023-04-03T08:51:51;27.20;33.00
45843;DHT22;31563;51.744;8.252;2023-04-03T08:54:28;27.40;32.80
45843;DHT22;31563;51.744;8.252;2023-04-03T08:57:03;27.70;33.00
45843;DHT22;31563;51.744;8.252;2023-04-03T08:59:34;28.00;32.80
45843;DHT22;31563;51.744;8.252;2023-04-03T09:02:12;28.20;32.40
45843;DHT22;31563;51.744;8.252;2023-04-03T09:04:44;28.40;32.30
45843;DHT22;31563;51.744;8.252;2023-04-03T09:07:18;28.60;32.30
45843;DHT22;31563;51.744;8.252;2023-04-03T09:09:47;28.90;32.00
45843;DHT22;31563;51.744;8.252;2023-04-03T09:12:21;29.10;31.80
45843;DHT22;31563;51.744;8.252;2023-04-03T09:14:59;29.40;31.90
45843;DHT22;31563;51.744;8.252;2023-04-03T09:17:41;29.60;31.60
45843;DHT22;31563;51.744;8.252;2023-04-03T09:20:17;29.90;31.70
45843;DHT22;31563;51.744;8.252;2023-04-03T09:22:47;30.20;31.50
45843;DHT22;31563;51.744;8.252;2023-04-03T09:25:21;30.50;31.40
45843;DHT22;31563;51.744;8.252;2023-04-03T09:27:52;30.60;30.80
45843;DHT22;31563;51.744;8.252;2023-04-03T09:30:22;30.70;31.10
45843;DHT22;31563;51.744;8.252;2023-04-03T09:32:52;31.00;31.10
45843;DHT22;31563;51.744;8.252;2023-04-03T09:35:24;31.20;30.60
45843;DHT22;31563;51.744;8.252;2023-04-03T09:38:18;31.50;30.50
45843;DHT22;31563;51.744;8.252;2023-04-03T09:40:49;31.70;30.70
45843;DHT22;31563;51.744;8.252;2023-04-03T09:43:38;32.10;30.60
45843;DHT22;31563;51.744;8.252;2023-04-03T09:46:25;32.50;30.00
45843;DHT22;31563;51.744;8.252;2023-04-03T09:48:57;32.80;29.60
45843;DHT22;31563;51.744;8.252;2023-04-03T09:51:34;33.00;29.80
45843;DHT22;31563;51.744;8.252;2023-04-03T09:54:24;33.20;29.60
45843;DHT22;31563;51.744;8.252;2023-04-03T09:56:54;33.40;29.60
45843;DHT22;31563;51.744;8.252;2023-04-03T09:59:25;33.70;29.30
45843;DHT22;31563;51.744;8.252;2023-04-03T10:01:58;34.00;28.50
45843;DHT22;31563;51.744;8.252;2023-04-03T10:04:37;34.10;28.20
45843;DHT22;31563;51.744;8.252;2023-04-03T10:09:55;35.10;29.00
45843;DHT22;31563;51.744;8.252;2023-04-03T10:12:23;35.60;28.60
45843;DHT22;31563;51.744;8.252;2023-04-03T10:14:57;35.90;28.10
45843;DHT22;31563;51.744;8.252;2023-04-03T10:17:33;36.20;28.00
45843;DHT22;31563;51.744;8.252;2023-04-03T10:20:10;36.60;27.90
45843;DHT22;31563;51.744;8.252;2023-04-03T10:22:53;36.90;27.90
45843;DHT22;31563;51.744;8.252;2023-04-03T10:25:28;37.30;27.80
45843;DHT22;31563;51.744;8.252;2023-04-03T10:28:00;37.60;27.60
45843;DHT22;31563;51.744;8.252;2023-04-03T10:30:40;37.90;27.50
45843;DHT22;31563;51.744;8.252;2023-04-03T10:33:20;38.20;27.30
45843;DHT22;31563;51.744;8.252;2023-04-03T10:35:51;38.60;27.00
45843;DHT22;31563;51.744;8.252;2023-04-03T10:38:29;38.30;26.00
45843;DHT22;31563;51.744;8.252;2023-04-03T10:41:03;37.80;26.30
45843;DHT22;31563;51.744;8.252;2023-04-03T10:43:38;37.70;26.40
45843;DHT22;31563;51.744;8.252;2023-04-03T10:46:13;37.50;26.50
45843;DHT22;31563;51.744;8.252;2023-04-03T10:48:55;37.50;26.60
45843;DHT22;31563;51.744;8.252;2023-04-03T10:51:29;37.00;26.20
45843;DHT22;31563;51.744;8.252;2023-04-03T10:54:05;37.00;27.10
45843;DHT22;31563;51.744;8.252;2023-04-03T10:56:38;37.50;27.00
45843;DHT22;31563;51.744;8.252;2023-04-03T10:59:19;38.00;26.70
45843;DHT22;31563;51.744;8.252;2023-04-03T11:01:53;37.90;27.10
45843;DHT22;31563;51.744;8.252;2023-04-03T11:04:26;38.20;27.10
45843;DHT22;31563;51.744;8.252;2023-04-03T11:06:59;37.90;26.90
45843;DHT22;31563;51.744;8.252;2023-04-03T11:09:29;37.20;23.80
45843;DHT22;31563;51.744;8.252;2023-04-03T11:12:02;36.90;26.40
45843;DHT22;31563;51.744;8.252;2023-04-03T11:14:35;36.80;27.00
45843;DHT22;31563;51.744;8.252;2023-04-03T11:17:27;36.80;26.90
45843;DHT22;31563;51.744;8.252;2023-04-03T11:20:02;36.50;26.70
45843;DHT22;31563;51.744;8.252;2023-04-03T11:22:36;37.50;27.20
45843;DHT22;31563;51.744;8.252;2023-04-03T11:25:15;38.60;26.90
45843;DHT22;31563;51.744;8.252;2023-04-03T11:27:49;39.60;26.90
45843;DHT22;31563;51.744;8.252;2023-04-03T11:30:21;40.30;26.20
45843;DHT22;31563;51.744;8.252;2023-04-03T11:35:47;40.90;25.80
45843;DHT22;31563;51.744;8.252;2023-04-03T11:38:22;41.30;25.60
45843;DHT22;31563;51.744;8.252;2023-04-03T11:40:54;41.50;25.30
45843;DHT22;31563;51.744;8.252;2023-04-03T11:43:26;40.70;25.00
45843;DHT22;31563;51.744;8.252;2023-04-03T11:45:57;40.30;25.80
45843;DHT22;31563;51.744;8.252;2023-04-03T11:48:49;39.40;25.10
45843;DHT22;31563;51.744;8.252;2023-04-03T11:51:41;38.80;26.20
45843;DHT22;31563;51.744;8.252;2023-04-03T11:54:43;38.90;26.40
45843;DHT22;31563;51.744;8.252;2023-04-03T12:00:55;39.20;26.40
45843;DHT22;31563;51.744;8.252;2023-04-03T12:09:56;39.90;22.30
45843;DHT22;31563;51.744;8.252;2023-04-03T12:12:30;38.80;21.30
45843;DHT22;31563;51.744;8.252;2023-04-03T12:15:19;38.20;20.80
45843;DHT22;31563;51.744;8.252;2023-04-03T12:17:49;37.80;20.90
45843;DHT22;31563;51.744;8.252;2023-04-03T12:20:52;37.70;20.90
45843;DHT22;31563;51.744;8.252;2023-04-03T12:23:25;37.50;20.80
45843;DHT22;31563;51.744;8.252;2023-04-03T12:28:46;39.20;21.90
45843;DHT22;31563;51.744;8.252;2023-04-03T12:31:16;39.90;21.90
45843;DHT22;31563;51.744;8.252;2023-04-03T12:34:04;40.10;21.60
45843;DHT22;31563;51.744;8.252;2023-04-03T12:36:44;40.00;21.60
45843;DHT22;31563;51.744;8.252;2023-04-03T12:39:33;40.30;21.60
45843;DHT22;31563;51.744;8.252;2023-04-03T12:42:16;40.90;22.00
45843;DHT22;31563;51.744;8.252;2023-04-03T12:44:52;41.20;22.70
45843;DHT22;31563;51.744;8.252;2023-04-03T12:47:26;40.70;23.50
45843;DHT22;31563;51.744;8.252;2023-04-03T12:49:56;40.10;23.20
45843;DHT22;31563;51.744;8.252;2023-04-03T12:52:33;39.30;23.60
45843;DHT22;31563;51.744;8.252;2023-04-03T12:55:07;38.30;24.10
45843;DHT22;31563;51.744;8.252;2023-04-03T12:57:38;37.60;24.60
45843;DHT22;31563;51.744;8.252;2023-04-03T13:00:20;38.10;25.40
45843;DHT22;31563;51.744;8.252;2023-04-03T13:02:49;38.80;25.30
45843;DHT22;31563;51.744;8.252;2023-04-03T13:05:19;39.10;24.90
45843;DHT22;31563;51.744;8.252;2023-04-03T13:07:49;39.30;25.10
45843;DHT22;31563;51.744;8.252;2023-04-03T13:10:18;39.70;25.00
45843;DHT22;31563;51.744;8.252;2023-04-03T13:12:51;39.90;25.00
45843;DHT22;31563;51.744;8.252;2023-04-03T13:15:23;40.10;24.90
45843;DHT22;31563;51.744;8.252;2023-04-03T13:17:52;39.60;24.60
45843;DHT22;31563;51.744;8.252;2023-04-03T13:20:25;38.80;24.70
45843;DHT22;31563;51.744;8.252;2023-04-03T13:22:59;38.30;25.30
45843;DHT22;31563;51.744;8.252;2023-04-03T13:25:30;38.50;25.60
45843;DHT22;31563;51.744;8.252;2023-04-03T13:28:03;38.90;25.70
45843;DHT22;31563;51.744;8.252;2023-04-03T13:30:40;39.20;25.40
45843;DHT22;31563;51.744;8.252;2023-04-03T13:33:23;39.40;25.40
45843;DHT22;31563;51.744;8.252;2023-04-03T13:35:56;39.60;25.40
45843;DHT22;31563;51.744;8.252;2023-04-03T13:38:26;39.70;25.40
45843;DHT22;31563;51.744;8.252;2023-04-03T13:40:59;39.80;25.40
45843;DHT22;31563;51.744;8.252;2023-04-03T13:43:33;39.70;25.20
45843;DHT22;31563;51.744;8.252;2023-04-03T13:46:05;39.60;25.40
45843;DHT22;31563;51.744;8.252;2023-04-03T13:48:39;39.80;25.40
45843;DHT22;31563;51.744;8.252;2023-04-03T13:51:18;40.00;25.30
45843;DHT22;31563;51.744;8.252;2023-04-03T13:53:51;40.10;25.20
45843;DHT22;31563;51.744;8.252;2023-04-03T13:56:25;40.20;25.40
45843;DHT22;31563;51.744;8.252;2023-04-03T13:59:03;40.40;25.30
45843;DHT22;31563;51.744;8.252;2023-04-03T14:01:42;40.70;25.20
45843;DHT22;31563;51.744;8.252;2023-04-03T14:04:14;40.00;21.80
45843;DHT22;31563;51.744;8.252;2023-04-03T14:06:44;38.00;20.60
45843;DHT22;31563;51.744;8.252;2023-04-03T14:09:13;36.80;21.10
45843;DHT22;31563;51.744;8.252;2023-04-03T14:11:42;36.80;21.10
45843;DHT22;31563;51.744;8.252;2023-04-03T14:14:14;36.20;20.90
45843;DHT22;31563;51.744;8.252;2023-04-03T14:16:48;35.70;20.80
45843;DHT22;31563;51.744;8.252;2023-04-03T14:19:21;34.90;20.60
45843;DHT22;31563;51.744;8.252;2023-04-03T14:21:51;34.30;20.60
45843;DHT22;31563;51.744;8.252;2023-04-03T14:24:20;34.30;20.50
45843;DHT22;31563;51.744;8.252;2023-04-03T14:26:50;33.90;20.70
45843;DHT22;31563;51.744;8.252;2023-04-03T14:29:21;34.90;21.70
45843;DHT22;31563;51.744;8.252;2023-04-03T14:31:50;36.50;21.60
45843;DHT22;31563;51.744;8.252;2023-04-03T14:34:37;37.90;21.60
45843;DHT22;31563;51.744;8.252;2023-04-03T14:37:06;39.30;21.40
45843;DHT22;31563;51.744;8.252;2023-04-03T14:39:37;40.10;21.40
45843;DHT22;31563;51.744;8.252;2023-04-03T14:42:05;40.90;21.30
45843;DHT22;31563;51.744;8.252;2023-04-03T14:44:35;41.50;21.30
45843;DHT22;31563;51.744;8.252;2023-04-03T14:47:03;42.20;21.40
45843;DHT22;31563;51.744;8.252;2023-04-03T14:49:34;42.60;21.40
45843;DHT22;31563;51.744;8.252;2023-04-03T14:52:02;43.20;21.50
45843;DHT22;31563;51.744;8.252;2023-04-03T14:54:30;43.50;21.40
45843;DHT22;31563;51.744;8.252;2023-04-03T14:56:59;43.90;21.50
45843;DHT22;31563;51.744;8.252;2023-04-03T14:59:29;44.30;21.60
45843;DHT22;31563;51.744;8.252;2023-04-03T15:01:59;44.40;21.60
45843;DHT22;31563;51.744;8.252;2023-04-03T15:04:28;44.70;21.60
45843;DHT22;31563;51.744;8.252;2023-04-03T15:06:56;44.90;21.70
45843;DHT22;31563;51.744;8.252;2023-04-03T15:09:26;45.20;21.80
45843;DHT22;31563;51.744;8.252;2023-04-03T15:11:55;45.40;21.90
45843;DHT22;31563;51.744;8.252;2023-04-03T15:14:24;45.60;21.80
45843;DHT22;31563;51.744;8.252;2023-04-03T15:17:14;45.80;21.90
45843;DHT22;31563;51.744;8.252;2023-04-03T15:19:44;46.00;22.00
45843;DHT22;31563;51.744;8.252;2023-04-03T15:22:14;46.20;22.10
45843;DHT22;31563;51.744;8.252;2023-04-03T15:24:43;46.30;22.00
45843;DHT22;31563;51.744;8.252;2023-04-03T15:27:12;46.40;22.10
45843;DHT22;31563;51.744;8.252;2023-04-03T15:29:43;46.50;22.20
45843;DHT22;31563;51.744;8.252;2023-04-03T15:32:13;46.50;22.20
45843;DHT22;31563;51.744;8.252;2023-04-03T15:34:42;46.40;21.90
45843;DHT22;31563;51.744;8.252;2023-04-03T15:37:10;45.60;20.90
45843;DHT22;31563;51.744;8.252;2023-04-03T15:39:38;45.10;21.80
45843;DHT22;31563;51.744;8.252;2023-04-03T15:42:06;45.10;22.00
45843;DHT22;31563;51.744;8.252;2023-04-03T15:44:34;44.50;22.10
45843;DHT22;31563;51.744;8.252;2023-04-03T15:47:02;44.80;22.40
45843;DHT22;31563;51.744;8.252;2023-04-03T15:49:32;45.20;22.40
45843;DHT22;31563;51.744;8.252;2023-04-03T15:52:02;45.40;22.40
45843;DHT22;31563;51.744;8.252;2023-04-03T15:54:30;45.40;22.40
45843;DHT22;31563;51.744;8.252;2023-04-03T15:56:58;45.00;22.30
45843;DHT22;31563;51.744;8.252;2023-04-03T15:59:26;44.50;22.40
45843;DHT22;31563;51.744;8.252;2023-04-03T16:01:55;43.90;22.60
45843;DHT22;31563;51.744;8.252;2023-04-03T16:04:24;43.50;22.70
45843;DHT22;31563;51.744;8.252;2023-04-03T16:06:53;43.20;22.90
45843;DHT22;31563;51.744;8.252;2023-04-03T16:09:22;42.80;23.00
45843;DHT22;31563;51.744;8.252;2023-04-03T16:11:50;42.50;23.30
45843;DHT22;31563;51.744;8.252;2023-04-03T16:14:18;41.50;23.10
45843;DHT22;31563;51.744;8.252;2023-04-03T16:16:46;40.40;23.60